Time;durP1;ratioP1;P1;durP2;ratioP2;P2;SDS_P1;SDS_P2;PMS_P1;PMS_P2;Temp;Humidity;BMP_temperature;BMP_pressure;BME280_temperature;BME280_humidity;BME280_pressure;Samples;Min_cycle;Max_cycle;Signal;HPM_P1;HPM_P2
2022/08/07 00:00:53;;;;;;;33.40;7.05;;;;;;;;;;6149562;23;20029;-55
2022/08/07 00:03:48;;;;;;;38.75;6.90;;;;;;;;;;6149246;23;20408;-57
2022/08/07 00:06:15;;;;;;;32.65;6.53;;;;;;;;;;6150127;23;20411;-55
2022/08/07 00:08:59;;;;;;;34.00;8.27;;;;;;;;;;6128524;23;20497;-54
2022/08/07 00:11:47;;;;;;;35.88;7.60;;;;;;;;;;6150257;23;20029;-62
2022/08/07 00:14:25;;;;;;;35.50;6.70;;;;;;;;;;6149299;23;20025;-62
2022/08/07 00:17:00;;;;;;;29.27;6.50;;;;;;;;;;6150328;23;20055;-62
2022/08/07 00:19:34;;;;;;;38.28;7.07;;;;;;;;;;6147972;23;20053;-62
2022/08/07 00:22:22;;;;;;;35.63;7.45;;;;;;;;;;6150041;23;20021;-62
2022/08/07 00:25:08;;;;;;;31.25;6.78;;;;;;;;;;6148697;23;20351;-63
2022/08/07 00:27:43;;;;;;;31.95;7.25;;;;;;;;;;6149716;23;20067;-63
2022/08/07 00:30:26;;;;;;;38.58;7.45;;;;;;;;;;6148669;23;20064;-47
2022/08/07 00:33:01;;;;;;;39.95;6.93;;;;;;;;;;6149587;23;20026;-49
2022/08/07 00:35:37;;;;;;;27.98;7.82;;;;;;;;;;6149882;23;20028;-47
2022/08/07 00:38:05;;;;;;;30.63;5.80;;;;;;;;;;6149038;23;20026;-46
2022/08/07 00:40:32;;;;;;;28.20;6.03;;;;;;;;;;6148917;23;20018;-45
2022/08/07 00:43:10;;;;;;;31.27;5.88;;;;;;;;;;6150280;23;20744;-46
2022/08/07 00:45:58;;;;;;;27.60;6.45;;;;;;;;;;6151422;23;20506;-44
2022/08/07 00:48:34;;;;;;;30.40;6.78;;;;;;;;;;6149728;23;20355;-57
2022/08/07 00:51:01;;;;;;;27.05;5.60;;;;;;;;;;6150094;23;20033;-62
2022/08/07 00:53:29;;;;;;;29.30;5.95;;;;;;;;;;6151454;23;20053;-62
2022/08/07 00:56:17;;;;;;;24.75;6.07;;;;;;;;;;6150979;23;20049;-62
2022/08/07 00:58:44;;;;;;;24.15;6.22;;;;;;;;;;6151089;23;20352;-63
2022/08/07 01:01:19;;;;;;;22.25;6.03;;;;;;;;;;6150661;23;20092;-63
2022/08/07 01:03:47;;;;;;;25.75;5.55;;;;;;;;;;6150871;23;20026;-63
2022/08/07 01:06:26;;;;;;;23.85;5.68;;;;;;;;;;6151581;23;20021;-45
2022/08/07 01:09:22;;;;;;;27.67;6.30;;;;;;;;;;6151521;23;20112;-61
2022/08/07 01:12:10;;;;;;;20.65;5.68;;;;;;;;;;6151524;23;20096;-61
2022/08/07 01:14:58;;;;;;;26.27;6.20;;;;;;;;;;6151261;23;20025;-61
2022/08/07 01:17:30;;;;;;;21.88;5.63;;;;;;;;;;6151000;23;20092;-62
2022/08/07 01:20:05;;;;;;;;;;;;;;;;;;6151954;23;20021;-62
2022/08/07 01:22:34;;;;;;;24.83;5.35;;;;;;;;;;6152352;23;19916;-62
2022/08/07 01:25:02;;;;;;;26.90;6.07;;;;;;;;;;6151391;23;20021;-61
2022/08/07 01:27:56;;;;;;;19.17;5.35;;;;;;;;;;6152263;23;20028;-57
2022/08/07 01:30:32;;;;;;;20.95;5.72;;;;;;;;;;6150534;23;20025;-57
2022/08/07 01:33:08;;;;;;;20.05;5.88;;;;;;;;;;6150936;23;20472;-57
2022/08/07 01:35:35;;;;;;;30.15;6.50;;;;;;;;;;6150290;23;20096;-57
2022/08/07 01:38:23;;;;;;;21.52;5.78;;;;;;;;;;6151411;23;20530;-57
2022/08/07 01:40:59;;;;;;;28.65;6.40;;;;;;;;;;6149670;23;20084;-56
2022/08/07 01:43:27;;;;;;;26.33;6.65;;;;;;;;;;6151058;23;20031;-61
2022/08/07 01:46:04;;;;;;;20.30;6.35;;;;;;;;;;6150386;23;20017;-62
2022/08/07 01:48:40;;;;;;;26.95;5.97;;;;;;;;;;6149849;23;20096;-62
2022/08/07 01:51:13;;;;;;;22.17;6.07;;;;;;;;;;6151993;23;20036;-62
2022/08/07 01:54:09;;;;;;;24.65;5.90;;;;;;;;;;6150969;23;20104;-61
2022/08/07 01:56:59;;;;;;;20.50;5.50;;;;;;;;;;6150731;23;20097;-60
2022/08/07 01:59:34;;;;;;;;;;;;;;;;;;6152394;23;20408;-61
2022/08/07 02:02:09;;;;;;;25.92;6.03;;;;;;;;;;6151034;23;20010;-46
2022/08/07 02:05:05;;;;;;;27.17;7.30;;;;;;;;;;6150132;23;20025;-55
2022/08/07 02:07:35;;;;;;;23.88;6.25;;;;;;;;;;6148553;23;20029;-56
2022/08/07 02:10:18;;;;;;;26.00;6.45;;;;;;;;;;6149883;23;20022;-57
2022/08/07 02:12:45;;;;;;;32.92;7.30;;;;;;;;;;6151279;23;20096;-55
2022/08/07 02:15:24;;;;;;;35.15;6.38;;;;;;;;;;6150519;23;20025;-57
2022/08/07 02:17:54;;;;;;;31.20;7.13;;;;;;;;;;6150543;23;20025;-57
2022/08/07 02:20:29;;;;;;;30.80;6.05;;;;;;;;;;6150821;23;20029;-63
2022/08/07 02:23:05;;;;;;;30.85;6.93;;;;;;;;;;6151621;23;20032;-62
2022/08/07 02:25:48;;;;;;;27.83;6.18;;;;;;;;;;6151201;23;20029;-62
2022/08/07 02:28:37;;;;;;;30.50;7.15;;;;;;;;;;6151081;23;20112;-61
2022/08/07 02:31:27;;;;;;;23.98;6.22;;;;;;;;;;6148448;23;20511;-62
2022/08/07 02:33:56;;;;;;;32.75;6.35;;;;;;;;;;6150460;23;20471;-62
2022/08/07 02:36:43;;;;;;;29.50;8.07;;;;;;;;;;6150931;23;20053;-62
2022/08/07 02:39:13;;;;;;;21.85;7.43;;;;;;;;;;6150233;23;20068;-62
2022/08/07 02:42:13;;;;;;;32.85;7.18;;;;;;;;;;6150451;23;20121;-62
2022/08/07 02:44:43;;;;;;;32.00;8.07;;;;;;;;;;6150185;23;20475;-61
2022/08/07 02:47:24;;;;;;;30.10;7.45;;;;;;;;;;6150046;23;20060;-63
2022/08/07 02:49:52;;;;;;;36.50;7.72;;;;;;;;;;6149810;23;20072;-62
2022/08/07 02:52:31;;;;;;;25.92;7.57;;;;;;;;;;6150236;23;20021;-63
2022/08/07 02:55:12;;;;;;;22.45;7.45;;;;;;;;;;6150080;23;20030;-63
2022/08/07 02:58:07;;;;;;;26.13;7.90;;;;;;;;;;6150738;23;20124;-62
2022/08/07 03:00:36;;;;;;;29.65;8.10;;;;;;;;;;6149722;23;20017;-59
2022/08/07 03:03:15;;;;;;;33.25;8.38;;;;;;;;;;6148829;23;20028;-57
2022/08/07 03:05:52;;;;;;;35.72;8.40;;;;;;;;;;6150207;23;20025;-61
2022/08/07 03:08:27;;;;;;;28.02;7.90;;;;;;;;;;6150206;23;20037;-56
2022/08/07 03:10:56;;;;;;;26.23;7.70;;;;;;;;;;6148395;23;20027;-57
2022/08/07 03:13:24;;;;;;;34.65;8.98;;;;;;;;;;6123557;23;20025;-55
2022/08/07 03:16:05;;;;;;;34.00;7.82;;;;;;;;;;6148934;23;20018;-58
2022/08/07 03:18:32;;;;;;;37.17;7.60;;;;;;;;;;6150269;23;20075;-56
2022/08/07 03:21:18;;;;;;;31.58;7.93;;;;;;;;;;6149961;23;20100;-57
2022/08/07 03:23:46;;;;;;;24.35;7.47;;;;;;;;;;6148942;23;20053;-59
2022/08/07 03:26:40;;;;;;;33.38;7.85;;;;;;;;;;6149320;23;20109;-58
2022/08/07 03:29:25;;;;;;;29.73;7.20;;;;;;;;;;6149577;23;20018;-57
2022/08/07 03:32:10;;;;;;;29.58;8.15;;;;;;;;;;6150496;23;20040;-55
2022/08/07 03:34:40;;;;;;;28.88;7.10;;;;;;;;;;6150537;23;20032;-63
2022/08/07 03:37:36;;;;;;;28.00;8.25;;;;;;;;;;6150479;23;20463;-58
2022/08/07 03:40:16;;;;;;;23.55;8.48;;;;;;;;;;6149700;23;20056;-58
2022/08/07 03:42:58;;;;;;;29.92;7.80;;;;;;;;;;6150634;23;20033;-57
2022/08/07 03:45:27;;;;;;;21.95;7.82;;;;;;;;;;6149082;23;20076;-57
2022/08/07 03:48:09;;;;;;;29.30;7.68;;;;;;;;;;6150213;23;20029;-56
2022/08/07 03:50:41;;;;;;;26.33;7.97;;;;;;;;;;6149354;23;20415;-58
2022/08/07 03:53:22;;;;;;;37.85;7.53;;;;;;;;;;6150905;23;20022;-58
2022/08/07 03:56:10;;;;;;;23.48;7.32;;;;;;;;;;6150296;23;20108;-58
2022/08/07 03:59:00;;;;;;;28.05;8.45;;;;;;;;;;6150605;23;20025;-58
2022/08/07 04:01:40;;;;;;;25.63;8.00;;;;;;;;;;6150052;23;20497;-57
2022/08/07 04:04:17;;;;;;;27.15;7.70;;;;;;;;;;6150039;23;20025;-58
2022/08/07 04:06:45;;;;;;;30.33;7.32;;;;;;;;;;6151002;23;20021;-55
2022/08/07 04:09:18;;;;;;;20.67;7.30;;;;;;;;;;6149719;23;20029;-57
2022/08/07 04:12:11;;;;;;;23.75;7.10;;;;;;;;;;6150804;23;20029;-58
2022/08/07 04:14:55;;;;;;;29.27;7.65;;;;;;;;;;6149242;23;20022;-46
2022/08/07 04:17:31;;;;;;;25.83;7.78;;;;;;;;;;6150767;23;20128;-46
2022/08/07 04:20:18;;;;;;;35.33;7.82;;;;;;;;;;6151178;23;20100;-47
2022/08/07 04:22:52;;;;;;;26.55;7.05;;;;;;;;;;6151599;23;20030;-45
2022/08/07 04:25:32;;;;;;;25.02;7.18;;;;;;;;;;6151908;23;20056;-47
2022/08/07 04:28:09;;;;;;;23.40;7.78;;;;;;;;;;6151945;23;20025;-45
2022/08/07 04:30:49;;;;;;;30.45;7.32;;;;;;;;;;6150004;23;20040;-47
2022/08/07 04:33:25;;;;;;;28.33;7.15;;;;;;;;;;6152661;23;20021;-58
2022/08/07 04:35:53;;;;;;;26.10;7.75;;;;;;;;;;6151702;23;20022;-58
2022/08/07 04:38:21;;;;;;;22.17;6.97;;;;;;;;;;6150696;23;20053;-59
2022/08/07 04:40:55;;;;;;;15.43;6.50;;;;;;;;;;6151514;23;20102;-58
2022/08/07 04:43:42;;;;;;;28.05;6.97;;;;;;;;;;6151935;23;20033;-54
2022/08/07 04:46:43;;;;;;;20.73;5.38;;;;;;;;;;6151296;23;20104;-57
2022/08/07 04:49:56;;;;;;;19.17;6.40;;;;;;;;;;6149077;23;20100;-57
2022/08/07 04:52:36;;;;;;;23.63;6.40;;;;;;;;;;6151258;23;20029;-47
2022/08/07 04:55:16;;;;;;;16.00;6.20;;;;;;;;;;6151673;23;20121;-45
2022/08/07 04:58:24;;;;;;;11.77;6.28;;;;;;;;;;6151305;23;20527;-45
2022/08/07 05:01:19;;;;;;;22.15;5.68;;;;;;;;;;6150282;23;20027;-48
2022/08/07 05:04:12;;;;;;;14.27;5.35;;;;;;;;;;6151781;23;20032;-47
2022/08/07 05:06:53;;;;;;;19.50;6.03;;;;;;;;;;6150961;23;20045;-61
2022/08/07 05:09:55;;;;;;;19.27;6.05;;;;;;;;;;6151726;23;20061;-62
2022/08/07 05:12:26;;;;;;;21.38;6.18;;;;;;;;;;6152072;23;20072;-62
2022/08/07 05:15:15;;;;;;;10.90;5.25;;;;;;;;;;6151554;23;20029;-62
2022/08/07 05:17:54;;;;;;;15.95;5.50;;;;;;;;;;6151490;23;20028;-63
2022/08/07 05:20:47;;;;;;;16.27;5.88;;;;;;;;;;6151593;23;20018;-63
2022/08/07 05:23:19;;;;;;;16.88;5.10;;;;;;;;;;6150086;23;20489;-61
2022/08/07 05:25:57;;;;;;;20.75;4.82;;;;;;;;;;6151024;23;20412;-62
2022/08/07 05:28:44;;;;;;;18.33;4.63;;;;;;;;;;6150989;23;20021;-64
2022/08/07 05:31:26;;;;;;;11.27;4.43;;;;;;;;;;6149863;23;20025;-63
2022/08/07 05:34:01;;;;;;;19.08;5.82;;;;;;;;;;6151524;23;20036;-64
2022/08/07 05:36:39;;;;;;;14.48;4.82;;;;;;;;;;6150545;23;20021;-65
2022/08/07 05:39:07;;;;;;;13.45;4.65;;;;;;;;;;6151022;23;20912;-64
2022/08/07 05:41:54;;;;;;;21.85;5.75;;;;;;;;;;6150002;23;20102;-64
2022/08/07 05:44:37;;;;;;;16.27;5.50;;;;;;;;;;6151212;23;20026;-58
2022/08/07 05:47:13;;;;;;;16.60;5.18;;;;;;;;;;6127248;23;20032;-59
2022/08/07 05:50:07;;;;;;;15.63;5.38;;;;;;;;;;6149897;23;20108;-58
2022/08/07 05:52:35;;;;;;;11.30;4.82;;;;;;;;;;6150354;23;20025;-59
2022/08/07 05:55:09;;;;;;;25.65;5.30;;;;;;;;;;6151146;23;20033;-59
2022/08/07 05:57:38;;;;;;;15.85;4.65;;;;;;;;;;6151603;23;20104;-58
2022/08/07 06:00:09;;;;;;;15.27;5.45;;;;;;;;;;6149574;23;20045;-59
2022/08/07 06:02:47;;;;;;;11.00;4.47;;;;;;;;;;6151202;23;20410;-62
2022/08/07 06:05:16;;;;;;;16.50;4.18;;;;;;;;;;6151556;23;20024;-58
2022/08/07 06:07:46;;;;;;;13.52;4.55;;;;;;;;;;6150868;23;20064;-58
2022/08/07 06:10:40;;;;;;;15.82;5.55;;;;;;;;;;6149712;23;20024;-59
2022/08/07 06:13:08;;;;;;;14.93;5.25;;;;;;;;;;6151026;23;20098;-59
2022/08/07 06:15:42;;;;;;;18.40;5.20;;;;;;;;;;6150959;23;20490;-59
2022/08/07 06:18:12;;;;;;;11.88;4.50;;;;;;;;;;6151098;23;20029;-59
2022/08/07 06:20:40;;;;;;;15.23;5.43;;;;;;;;;;6149797;23;20060;-64
2022/08/07 06:23:54;;;;;;;16.48;6.03;;;;;;;;;;6151862;23;20105;-59
2022/08/07 06:26:42;;;;;;;15.05;5.32;;;;;;;;;;6151539;23;20022;-59
2022/08/07 06:29:17;;;;;;;15.25;5.90;;;;;;;;;;6150742;23;20033;-59
2022/08/07 06:31:51;;;;;;;15.55;5.88;;;;;;;;;;6150567;23;20094;-58
2022/08/07 06:34:27;;;;;;;16.30;6.20;;;;;;;;;;6151264;23;20037;-59
2022/08/07 06:36:56;;;;;;;11.93;5.40;;;;;;;;;;6149973;23;20017;-58
2022/08/07 06:39:23;;;;;;;14.88;5.75;;;;;;;;;;6151095;23;20025;-45
2022/08/07 06:42:19;;;;;;;17.42;5.65;;;;;;;;;;6129819;23;20413;-45
2022/08/07 06:44:59;;;;;;;11.45;5.22;;;;;;;;;;6149971;23;20037;-47
2022/08/07 06:47:37;;;;;;;14.52;5.53;;;;;;;;;;6151489;23;20068;-47
2022/08/07 06:50:26;;;;;;;24.80;6.78;;;;;;;;;;6150272;23;20022;-47
2022/08/07 06:53:03;;;;;;;16.00;6.63;;;;;;;;;;6151450;23;20025;-46
2022/08/07 06:55:31;;;;;;;13.68;6.22;;;;;;;;;;6150269;23;20029;-48
2022/08/07 06:58:19;;;;;;;14.35;6.60;;;;;;;;;;6149463;23;20100;-62
2022/08/07 07:00:55;;;;;;;14.05;6.13;;;;;;;;;;6150774;23;20021;-44
2022/08/07 07:03:22;;;;;;;13.93;6.60;;;;;;;;;;6150106;23;20361;-48
2022/08/07 07:06:09;;;;;;;14.85;5.82;;;;;;;;;;6149526;23;20167;-45
2022/08/07 07:08:52;;;;;;;17.15;6.15;;;;;;;;;;6150882;23;20025;-45
2022/08/07 07:11:20;;;;;;;14.75;5.72;;;;;;;;;;6150682;23;20044;-47
2022/08/07 07:14:15;;;;;;;12.40;5.53;;;;;;;;;;6150330;23;20057;-58
2022/08/07 07:16:44;;;;;;;13.43;6.35;;;;;;;;;;6151117;23;20026;-63
2022/08/07 07:19:31;;;;;;;14.43;6.47;;;;;;;;;;6151493;23;20025;-47
2022/08/07 07:22:18;;;;;;;17.55;6.50;;;;;;;;;;6149753;23;20347;-46
2022/08/07 07:25:08;;;;;;;13.20;6.18;;;;;;;;;;6151343;23;20136;-44
2022/08/07 07:28:01;;;;;;;14.88;6.07;;;;;;;;;;6149989;23;20026;-45
2022/08/07 07:31:01;;;;;;;;;;;;;;;;;;6150574;23;20100;-47
2022/08/07 07:33:32;;;;;;;10.88;5.95;;;;;;;;;;6149968;23;19920;-62
2022/08/07 07:36:10;;;;;;;11.57;6.50;;;;;;;;;;6149403;23;20021;-64
2022/08/07 07:38:45;;;;;;;13.75;7.03;;;;;;;;;;6149113;23;20374;-64
2022/08/07 07:41:22;;;;;;;15.68;7.20;;;;;;;;;;6149940;23;20025;-64
2022/08/07 07:44:19;;;;;;;14.65;7.45;;;;;;;;;;6150240;23;20026;-64
2022/08/07 07:46:53;;;;;;;14.38;7.75;;;;;;;;;;6150055;23;20032;-63
2022/08/07 07:49:43;;;;;;;15.10;7.40;;;;;;;;;;6150331;23;20537;-63
2022/08/07 07:52:46;;;;;;;14.15;7.55;;;;;;;;;;6148541;23;20045;-56
2022/08/07 07:55:15;;;;;;;13.18;7.47;;;;;;;;;;6151323;23;20490;-63
2022/08/07 07:57:49;;;;;;;15.88;8.27;;;;;;;;;;6149281;23;20025;-62
2022/08/07 08:00:28;;;;;;;14.57;7.82;;;;;;;;;;6147835;23;20426;-64
2022/08/07 08:03:20;;;;;;;14.90;7.57;;;;;;;;;;6150116;23;20073;-63
2022/08/07 08:06:32;;;;;;;16.33;8.23;;;;;;;;;;6149539;23;20443;-63
2022/08/07 08:09:27;;;;;;;14.68;8.27;;;;;;;;;;6148409;23;20033;-45
2022/08/07 08:11:56;;;;;;;13.90;8.90;;;;;;;;;;6149392;23;20097;-44
2022/08/07 08:14:32;;;;;;;15.60;8.95;;;;;;;;;;6150132;23;20076;-64
2022/08/07 08:17:12;;;;;;;15.25;8.93;;;;;;;;;;6150196;23;20077;-64
2022/08/07 08:20:15;;;;;;;18.73;9.13;;;;;;;;;;6147614;23;20030;-64
2022/08/07 08:27:03;;;;;;;16.70;9.95;;;;;;;;;;6149705;23;20021;-64
2022/08/07 08:28:55;;;;;;;15.80;9.23;;;;;;;;;;6149652;23;20026;-63
2022/08/07 08:31:45;;;;;;;18.02;10.05;;;;;;;;;;6149201;23;20030;-47
2022/08/07 08:34:40;;;;;;;16.23;10.13;;;;;;;;;;6149139;23;20040;-45
2022/08/07 08:37:18;;;;;;;21.15;11.20;;;;;;;;;;6150048;23;20032;-48
2022/08/07 08:40:07;;;;;;;20.05;11.18;;;;;;;;;;6146479;23;20096;-46
2022/08/07 08:42:54;;;;;;;20.60;11.48;;;;;;;;;;6148549;23;20435;-46
2022/08/07 08:45:25;;;;;;;14.13;10.32;;;;;;;;;;6150238;23;20022;-45
2022/08/07 08:48:34;;;;;;;17.15;9.77;;;;;;;;;;6149898;23;20057;-45
2022/08/07 08:51:23;;;;;;;12.32;8.55;;;;;;;;;;6124918;23;20029;-47
2022/08/07 08:54:23;;;;;;;10.40;8.40;;;;;;;;;;6148733;23;20101;-47
2022/08/07 08:56:52;;;;;;;8.82;7.63;;;;;;;;;;6148110;23;20105;-45
2022/08/07 08:59:46;;;;;;;14.00;8.90;;;;;;;;;;6149883;23;20100;-46
2022/08/07 09:02:24;;;;;;;10.37;8.07;;;;;;;;;;6148344;23;20026;-45
2022/08/07 09:05:16;;;;;;;13.45;8.10;;;;;;;;;;6149595;23;20021;-45
2022/08/07 09:07:59;;;;;;;13.25;8.93;;;;;;;;;;6147957;23;20033;-63
2022/08/07 09:10:39;;;;;;;12.73;8.60;;;;;;;;;;6151463;23;20025;-64
2022/08/07 09:13:13;;;;;;;15.80;9.40;;;;;;;;;;6149838;23;20119;-63
2022/08/07 09:16:07;;;;;;;11.27;9.18;;;;;;;;;;6151067;23;20097;-63
2022/08/07 09:19:11;;;;;;;10.23;8.65;;;;;;;;;;6150140;23;20483;-63
2022/08/07 09:22:23;;;;;;;15.20;8.35;;;;;;;;;;6151863;23;20026;-63
2022/08/07 09:25:37;;;;;;;12.20;7.63;;;;;;;;;;6149355;23;20057;-59
2022/08/07 09:28:47;;;;;;;10.13;6.70;;;;;;;;;;6129098;23;20064;-63
2022/08/07 09:32:02;;;;;;;11.27;7.25;;;;;;;;;;6150422;23;20538;-63
2022/08/07 09:34:44;;;;;;;10.52;6.75;;;;;;;;;;6151127;23;20049;-63
2022/08/07 09:37:24;;;;;;;9.80;7.32;;;;;;;;;;6150628;23;20021;-63
2022/08/07 09:40:29;;;;;;;10.82;7.60;;;;;;;;;;6150246;23;20017;-63
2022/08/07 09:42:57;;;;;;;9.75;7.70;;;;;;;;;;6149570;23;20018;-58
2022/08/07 09:45:39;;;;;;;9.57;7.43;;;;;;;;;;6150701;23;20025;-63
2022/08/07 09:48:45;;;;;;;9.50;7.13;;;;;;;;;;6149538;23;20355;-63
2022/08/07 09:51:57;;;;;;;14.63;8.13;;;;;;;;;;6149669;23;20120;-63
2022/08/07 09:54:42;;;;;;;10.48;8.23;;;;;;;;;;6150750;23;20514;-63
2022/08/07 09:57:35;;;;;;;14.05;8.23;;;;;;;;;;6147836;23;20084;-62
2022/08/07 10:00:17;;;;;;;10.10;7.80;;;;;;;;;;6147312;23;20359;-45
2022/08/07 10:02:58;;;;;;;10.90;8.35;;;;;;;;;;6149549;23;20025;-54
2022/08/07 10:05:34;;;;;;;9.65;8.27;;;;;;;;;;6147968;23;20030;-55
2022/08/07 10:08:38;;;;;;;12.95;8.43;;;;;;;;;;6128713;23;20061;-57
2022/08/07 10:11:25;;;;;;;9.57;7.90;;;;;;;;;;6148483;23;20471;-57
2022/08/07 10:14:38;;;;;;;11.68;7.97;;;;;;;;;;6150071;23;20022;-56
2022/08/07 10:17:05;;;;;;;13.25;8.95;;;;;;;;;;6147449;23;20474;-56
2022/08/07 10:19:46;;;;;;;13.02;9.18;;;;;;;;;;6149822;23;20049;-58
2022/08/07 10:22:32;;;;;;;10.27;8.52;;;;;;;;;;6124283;23;20511;-50
2022/08/07 10:25:28;;;;;;;10.88;8.63;;;;;;;;;;6150521;23;20021;-47
2022/08/07 10:28:28;;;;;;;11.15;9.52;;;;;;;;;;6149264;23;20722;-48
2022/08/07 10:31:27;;;;;;;14.45;9.00;;;;;;;;;;6149975;23;20367;-48
2022/08/07 10:34:16;;;;;;;9.35;8.05;;;;;;;;;;6148577;23;20487;-46
2022/08/07 10:37:13;;;;;;;12.45;8.90;;;;;;;;;;6150898;23;20025;-47
2022/08/07 10:40:00;;;;;;;12.82;7.40;;;;;;;;;;6149547;23;20104;-46
2022/08/07 10:42:35;;;;;;;9.75;8.70;;;;;;;;;;6150664;23;20764;-49
2022/08/07 10:45:17;;;;;;;14.27;9.35;;;;;;;;;;6151610;23;20025;-50
2022/08/07 10:48:20;;;;;;;13.02;9.60;;;;;;;;;;6149628;23;20096;-45
2022/08/07 10:50:57;;;;;;;12.10;9.65;;;;;;;;;;6149232;23;20025;-47
2022/08/07 10:54:06;;;;;;;12.43;8.98;;;;;;;;;;6151046;23;20366;-48
2022/08/07 10:56:43;;;;;;;12.68;9.00;;;;;;;;;;6148678;23;20049;-65
2022/08/07 10:59:29;;;;;;;12.95;9.38;;;;;;;;;;6150322;23;20382;-49
2022/08/07 11:02:15;;;;;;;11.75;9.73;;;;;;;;;;6149548;23;20443;-46
2022/08/07 11:05:27;;;;;;;11.82;10.15;;;;;;;;;;6151734;23;20059;-48
2022/08/07 11:08:33;;;;;;;21.13;11.18;;;;;;;;;;6149572;23;20017;-50
2022/08/07 11:11:13;;;;;;;13.45;10.75;;;;;;;;;;6148035;23;20403;-47
2022/08/07 11:13:52;;;;;;;14.18;10.50;;;;;;;;;;6148967;23;20092;-60
2022/08/07 11:16:53;;;;;;;21.67;11.70;;;;;;;;;;6147870;23;20029;-47
2022/08/07 11:19:45;;;;;;;10.63;9.52;;;;;;;;;;6150766;23;20025;-47
2022/08/07 11:22:38;;;;;;;15.02;9.77;;;;;;;;;;6148456;23;20030;-45
2022/08/07 11:25:31;;;;;;;16.25;11.73;;;;;;;;;;6149009;23;20025;-46
2022/08/07 11:28:15;;;;;;;20.40;10.93;;;;;;;;;;6148058;23;20052;-45
2022/08/07 11:31:08;;;;;;;15.05;11.35;;;;;;;;;;6148565;23;20033;-46
2022/08/07 11:33:55;;;;;;;15.32;10.63;;;;;;;;;;6148180;23;20359;-63
2022/08/07 11:36:38;;;;;;;14.00;10.65;;;;;;;;;;6149249;23;20029;-63
2022/08/07 11:39:15;;;;;;;;;;;;;;;;;;6128038;23;20025;-62
2022/08/07 11:42:09;;;;;;;15.15;11.23;;;;;;;;;;6150562;23;19991;-63
2022/08/07 11:44:45;;;;;;;15.55;10.65;;;;;;;;;;6144333;23;20104;-63
2022/08/07 11:47:39;;;;;;;13.55;10.05;;;;;;;;;;6151101;23;20049;-63
2022/08/07 11:50:46;;;;;;;20.70;11.05;;;;;;;;;;6151164;23;20037;-58
2022/08/07 11:53:27;;;;;;;13.63;11.13;;;;;;;;;;6127635;23;20033;-63
2022/08/07 11:56:01;;;;;;;14.27;11.60;;;;;;;;;;6150818;23;20028;-63
2022/08/07 11:59:07;;;;;;;16.83;10.98;;;;;;;;;;6149283;23;20053;-63
2022/08/07 12:02:16;;;;;;;17.27;11.73;;;;;;;;;;6147047;23;20096;-63
2022/08/07 12:05:05;;;;;;;15.38;11.75;;;;;;;;;;6150970;23;20028;-63
2022/08/07 12:07:59;;;;;;;16.52;11.43;;;;;;;;;;6149675;23;20096;-65
2022/08/07 12:10:39;;;;;;;17.95;12.30;;;;;;;;;;6149612;23;20028;-63
2022/08/07 12:13:27;;;;;;;13.95;11.15;;;;;;;;;;6150722;23;20061;-49
2022/08/07 12:16:03;;;;;;;15.55;11.77;;;;;;;;;;6149847;23;20021;-50
2022/08/07 12:18:51;;;;;;;13.90;11.85;;;;;;;;;;6150686;23;20362;-47
2022/08/07 12:21:34;;;;;;;16.50;11.77;;;;;;;;;;6149875;23;20029;-46
2022/08/07 12:24:30;;;;;;;15.10;11.30;;;;;;;;;;6149837;23;20032;-46
2022/08/07 12:27:12;;;;;;;13.15;11.85;;;;;;;;;;6125374;23;20021;-63
2022/08/07 12:30:10;;;;;;;14.45;10.85;;;;;;;;;;6150140;23;20075;-60
2022/08/07 12:32:49;;;;;;;13.23;10.93;;;;;;;;;;6148947;23;20029;-60
2022/08/07 12:35:24;;;;;;;16.05;10.45;;;;;;;;;;6151226;23;20022;-63
2022/08/07 12:37:55;;;;;;;12.70;9.18;;;;;;;;;;6149972;23;20479;-60
2022/08/07 12:40:43;;;;;;;13.38;9.48;;;;;;;;;;6150713;23;20555;-60
2022/08/07 12:43:20;;;;;;;11.75;9.77;;;;;;;;;;6151998;23;20056;-60
2022/08/07 12:46:12;;;;;;;11.75;9.40;;;;;;;;;;6150837;23;20548;-55
2022/08/07 12:49:11;;;;;;;11.15;9.38;;;;;;;;;;6150799;23;20036;-47
2022/08/07 12:52:01;;;;;;;11.35;9.35;;;;;;;;;;6151860;23;20120;-47
2022/08/07 12:54:44;;;;;;;14.48;9.00;;;;;;;;;;6152200;23;20025;-52
2022/08/07 12:57:25;;;;;;;12.23;9.23;;;;;;;;;;6151067;23;20359;-51
2022/08/07 13:00:19;;;;;;;11.35;8.60;;;;;;;;;;6151746;23;20022;-45
2022/08/07 13:03:30;;;;;;;13.77;9.18;;;;;;;;;;6150899;23;20072;-47
2022/08/07 13:06:29;;;;;;;13.98;9.60;;;;;;;;;;6149246;23;20022;-62
2022/08/07 13:09:00;;;;;;;11.98;9.25;;;;;;;;;;6151572;23;20021;-61
2022/08/07 13:12:00;;;;;;;11.20;8.85;;;;;;;;;;6151477;23;20100;-61
2022/08/07 13:14:42;;;;;;;12.18;9.52;;;;;;;;;;6152217;23;20080;-62
2022/08/07 13:17:30;;;;;;;12.00;9.75;;;;;;;;;;6151717;23;20017;-61
2022/08/07 13:20:13;;;;;;;11.90;8.88;;;;;;;;;;6128750;23;20029;-63
2022/08/07 13:23:01;;;;;;;10.77;9.00;;;;;;;;;;6151192;23;20021;-61
2022/08/07 13:25:53;;;;;;;14.55;10.25;;;;;;;;;;6151077;23;20024;-60
2022/08/07 13:28:37;;;;;;;12.43;11.13;;;;;;;;;;6151589;23;20028;-60
2022/08/07 13:31:13;;;;;;;15.02;12.68;;;;;;;;;;6150979;23;20048;-61
2022/08/07 13:33:50;;;;;;;22.33;14.15;;;;;;;;;;6151684;23;20053;-63
2022/08/07 13:36:41;;;;;;;19.95;13.23;;;;;;;;;;6151792;23;20096;-62
2022/08/07 13:39:23;;;;;;;16.05;13.38;;;;;;;;;;6152237;23;20033;-62
2022/08/07 13:42:13;;;;;;;18.25;14.07;;;;;;;;;;6148279;23;20104;-66
2022/08/07 13:44:52;;;;;;;15.35;13.27;;;;;;;;;;6143547;23;20021;-59
2022/08/07 13:47:40;;;;;;;18.40;14.57;;;;;;;;;;6144540;23;20100;-59
2022/08/07 13:50:34;;;;;;;21.00;14.45;;;;;;;;;;6147828;23;20706;-59
2022/08/07 13:53:22;;;;;;;18.65;13.80;;;;;;;;;;6149292;23;20063;-58
2022/08/07 13:56:20;;;;;;;22.05;14.38;;;;;;;;;;6149164;23;20021;-59
2022/08/07 13:59:09;;;;;;;19.70;14.63;;;;;;;;;;6145274;23;20481;-46
2022/08/07 14:01:48;;;;;;;18.48;15.32;;;;;;;;;;6150414;23;20057;-66
2022/08/07 14:04:25;;;;;;;12.30;10.10;;;;;;;;;;6150385;23;20071;-64
2022/08/07 14:07:06;;;;;;;13.90;10.73;;;;;;;;;;6147932;23;20060;-65
2022/08/07 14:09:39;;;;;;;13.23;9.77;;;;;;;;;;6150539;23;20022;-63
2022/08/07 14:12:44;;;;;;;11.75;10.07;;;;;;;;;;6130338;23;20359;-64
2022/08/07 14:15:20;;;;;;;10.38;9.30;;;;;;;;;;6148940;23;20029;-65
2022/08/07 14:18:13;;;;;;;11.45;9.52;;;;;;;;;;6149688;23;20391;-47
2022/08/07 14:21:14;;;;;;;14.18;10.00;;;;;;;;;;6149793;23;20104;-58
2022/08/07 14:24:14;;;;;;;13.43;9.82;;;;;;;;;;6149625;23;20021;-59
2022/08/07 14:26:49;;;;;;;11.23;9.50;;;;;;;;;;6148598;23;20025;-58
2022/08/07 14:29:30;;;;;;;14.25;10.93;;;;;;;;;;6145767;23;20032;-58
2022/08/07 14:32:25;;;;;;;11.95;9.32;;;;;;;;;;6148425;23;20248;-58
2022/08/07 14:35:01;;;;;;;10.68;9.15;;;;;;;;;;6145898;23;20660;-64
2022/08/07 14:37:30;;;;;;;12.45;9.60;;;;;;;;;;6148953;23;20025;-58
2022/08/07 14:40:07;;;;;;;13.98;9.80;;;;;;;;;;6148556;23;20502;-65
2022/08/07 14:43:00;;;;;;;12.93;9.60;;;;;;;;;;6147572;23;20026;-65
2022/08/07 14:45:47;;;;;;;10.93;9.05;;;;;;;;;;6148304;23;20489;-65
2022/08/07 14:48:31;;;;;;;10.25;9.10;;;;;;;;;;6148411;23;20076;-65
2022/08/07 14:51:02;;;;;;;13.65;9.40;;;;;;;;;;6148755;23;20100;-64
2022/08/07 14:53:43;;;;;;;13.05;9.77;;;;;;;;;;6147608;23;20685;-60
2022/08/07 14:56:32;;;;;;;11.38;8.55;;;;;;;;;;6148256;23;20109;-65
2022/08/07 14:59:08;;;;;;;10.68;8.10;;;;;;;;;;6150075;23;20032;-64
2022/08/07 15:01:57;;;;;;;8.93;7.85;;;;;;;;;;6150487;23;20030;-64
2022/08/07 15:04:51;;;;;;;10.88;8.82;;;;;;;;;;6148784;23;20017;-65
2022/08/07 15:07:22;;;;;;;10.77;8.90;;;;;;;;;;6149127;23;20101;-64
2022/08/07 15:10:19;;;;;;;14.35;8.38;;;;;;;;;;6150046;23;20080;-64
2022/08/07 15:12:53;;;;;;;9.60;8.07;;;;;;;;;;6149272;23;20021;-60
2022/08/07 15:15:35;;;;;;;9.75;8.73;;;;;;;;;;6147502;23;20576;-45
2022/08/07 15:18:08;;;;;;;12.50;8.00;;;;;;;;;;6143523;23;20138;-47
2022/08/07 15:21:07;;;;;;;8.50;7.35;;;;;;;;;;6147544;23;20028;-44
2022/08/07 15:24:01;;;;;;;9.20;7.90;;;;;;;;;;6124485;23;20363;-44
2022/08/07 15:26:58;;;;;;;10.07;7.57;;;;;;;;;;6145903;23;20108;-45
2022/08/07 15:29:32;;;;;;;9.95;7.13;;;;;;;;;;6144951;23;20026;-44
2022/08/07 15:32:34;;;;;;;9.93;8.10;;;;;;;;;;6144553;23;20057;-55
2022/08/07 15:35:21;;;;;;;9.02;7.60;;;;;;;;;;6145461;23;20395;-45
2022/08/07 15:38:16;;;;;;;11.52;8.50;;;;;;;;;;6149252;23;20097;-48
2022/08/07 15:41:00;;;;;;;9.63;8.63;;;;;;;;;;6148129;23;20029;-46
2022/08/07 15:44:05;;;;;;;9.82;8.82;;;;;;;;;;6144896;23;20033;-51
2022/08/07 15:46:34;;;;;;;11.90;9.45;;;;;;;;;;6146505;23;20021;-46
2022/08/07 15:49:22;;;;;;;14.35;10.07;;;;;;;;;;6148138;23;20025;-49
2022/08/07 15:52:10;;;;;;;8.90;6.10;;;;;;;;;;6148321;23;20022;-62
2022/08/07 15:54:50;;;;;;;7.85;5.57;;;;;;;;;;6144010;23;20033;-63
2022/08/07 15:57:24;;;;;;;7.53;5.82;;;;;;;;;;6143586;23;20018;-63
2022/08/07 16:00:15;;;;;;;9.55;6.55;;;;;;;;;;6142314;23;20104;-63
2022/08/07 16:03:00;;;;;;;11.15;6.93;;;;;;;;;;6142761;23;20026;-63
2022/08/07 16:05:54;;;;;;;10.07;7.72;;;;;;;;;;6142420;23;20447;-62
2022/08/07 16:08:23;;;;;;;7.63;6.82;;;;;;;;;;6145275;23;20026;-63
2022/08/07 16:11:06;;;;;;;11.23;7.75;;;;;;;;;;6144139;23;20033;-63